createdAt,value
2024-04-09T00:03:18.181Z,99185.03
2024-04-09T00:08:20.036Z,99187.50
2024-04-09T00:13:22.098Z,99193.97
2024-04-09T00:18:25.922Z,99183.72
2024-04-09T00:23:29.926Z,99197.50
2024-04-09T00:28:32.177Z,99190.69
2024-04-09T00:38:36.292Z,99205.22
2024-04-09T00:43:38.606Z,99217.56
2024-04-09T00:48:41.187Z,99201.25
2024-04-09T00:53:44.475Z,99189.06
2024-04-09T00:58:47.892Z,99193.88
2024-04-09T01:03:50.095Z,99200.38
2024-04-09T01:08:52.019Z,99193.06
2024-04-09T01:13:54.524Z,99197.94
2024-04-09T01:18:56.486Z,99202.69
2024-04-09T01:24:00.149Z,99193.72
2024-04-09T01:29:02.148Z,99194.69
2024-04-09T01:34:05.791Z,99182.84
2024-04-09T01:39:09.820Z,99185.00
2024-04-09T01:44:12.024Z,99164.13
2024-04-09T01:49:13.823Z,99162.25
2024-04-09T01:54:15.733Z,99188.91
2024-04-09T01:59:17.789Z,99217.00
2024-04-09T02:04:19.813Z,99214.84
2024-04-09T02:09:23.428Z,99181.47
2024-04-09T02:14:26.862Z,99171.47
2024-04-09T02:19:30.173Z,99170.97
2024-04-09T02:24:31.982Z,99181.56
2024-04-09T02:29:33.791Z,99181.28
2024-04-09T02:34:37.205Z,99172.06
2024-04-09T02:39:39.223Z,99139.72
2024-04-09T02:44:41.121Z,99123.25
2024-04-09T02:49:45.387Z,99122.66
2024-04-09T02:54:47.471Z,99113.03
2024-04-09T02:59:53.380Z,99099.88
2024-04-09T03:04:55.149Z,99089.25
2024-04-09T03:09:57.089Z,99089.03
2024-04-09T03:14:58.854Z,99084.00
2024-04-09T03:20:00.602Z,99073.16
2024-04-09T03:25:02.393Z,99080.47
2024-04-09T03:30:05.772Z,99076.38
2024-04-09T03:35:07.746Z,99079.78
2024-04-09T03:40:11.557Z,99145.25
2024-04-09T03:45:13.400Z,99156.81
2024-04-09T03:50:15.500Z,99168.81
2024-04-09T03:55:17.420Z,99184.16
2024-04-09T04:00:19.438Z,99198.22
2024-04-09T04:05:21.248Z,99217.19
2024-04-09T04:10:23.485Z,99223.06
2024-04-09T04:15:25.405Z,99225.53
2024-04-09T04:20:27.197Z,99244.56
2024-04-09T04:25:28.993Z,99250.94
2024-04-09T04:30:31.063Z,99270.00
2024-04-09T04:35:32.828Z,99287.88
2024-04-09T04:40:34.565Z,99337.50
2024-04-09T04:45:36.440Z,99351.53
2024-04-09T04:50:38.685Z,99333.47
2024-04-09T04:55:40.996Z,99325.19
2024-04-09T05:00:42.919Z,99335.84
2024-04-09T05:05:44.765Z,99350.84
2024-04-09T05:10:46.578Z,99342.03
2024-04-09T05:15:48.927Z,99350.44
2024-04-09T05:20:51.509Z,99359.59
2024-04-09T05:25:53.787Z,99411.13
2024-04-09T05:30:56.215Z,99400.09
2024-04-09T05:35:57.998Z,99404.66
2024-04-09T05:40:59.875Z,99410.81
2024-04-09T05:46:01.622Z,99405.25
2024-04-09T05:51:04.449Z,99411.69
2024-04-09T05:56:06.470Z,99404.84
2024-04-09T06:01:09.390Z,99396.28
2024-04-09T06:06:11.656Z,99408.13
2024-04-09T06:11:13.698Z,99412.84
2024-04-09T06:16:15.491Z,99418.91
2024-04-09T06:21:17.350Z,99430.81
2024-04-09T06:26:21.478Z,99450.84
2024-04-09T06:31:23.330Z,99461.19
2024-04-09T06:36:27.442Z,99454.31
2024-04-09T06:41:29.822Z,99444.25
2024-04-09T06:46:32.924Z,99414.25
2024-04-09T06:51:34.978Z,99440.16
2024-04-09T06:56:36.915Z,99440.06
2024-04-09T07:01:39.099Z,99474.00
2024-04-09T07:06:41.654Z,99461.66
2024-04-09T07:11:45.127Z,99473.19
2024-04-09T07:16:47.679Z,99486.97
2024-04-09T07:21:50.300Z,99504.22
2024-04-09T07:26:52.002Z,99498.31
2024-04-09T07:31:53.856Z,99485.19
2024-04-09T07:36:55.955Z,99444.16
2024-04-09T07:41:58.537Z,99499.91
2024-04-09T07:47:00.404Z,99504.22
2024-04-09T07:52:02.191Z,99497.66
2024-04-09T07:57:05.226Z,99513.66
2024-04-09T08:02:07.087Z,99526.94
2024-04-09T08:07:09.313Z,99515.59
2024-04-09T08:12:11.334Z,99518.31
2024-04-09T08:17:13.408Z,99543.78
2024-04-09T08:22:17.519Z,99570.53
2024-04-09T08:27:19.499Z,99585.72
2024-04-09T08:32:21.645Z,99593.09
2024-04-09T08:37:24.276Z,99590.44
2024-04-09T08:42:29.836Z,99614.94
2024-04-09T08:47:31.769Z,99602.66
2024-04-09T08:52:33.901Z,99615.28
2024-04-09T08:57:36.597Z,99587.41
2024-04-09T09:02:38.661Z,99553.78
2024-04-09T09:07:41.611Z,99598.72
2024-04-09T09:12:45.280Z,99626.19
2024-04-09T09:17:47.268Z,99608.97
2024-04-09T09:22:49.326Z,99607.19
2024-04-09T09:28:02.996Z,99658.56
2024-04-09T09:33:06.219Z,99652.34
2024-04-09T09:38:08.822Z,99702.44
2024-04-09T09:43:11.840Z,99700.97
2024-04-09T09:48:14.148Z,99709.91
2024-04-09T09:53:19.208Z,99715.81
2024-04-09T09:58:25.443Z,99725.91
2024-04-09T10:03:27.537Z,99751.84
2024-04-09T10:08:30.194Z,99778.47
2024-04-09T10:13:32.419Z,99805.81
2024-04-09T10:18:40.566Z,99810.47
2024-04-09T10:23:42.916Z,99830.72
2024-04-09T10:28:45.226Z,99842.00
2024-04-09T10:33:57.610Z,99853.63
2024-04-09T10:39:00.557Z,99879.81
2024-04-09T10:44:02.384Z,99878.63
2024-04-09T10:49:04.785Z,99899.28
2024-04-09T10:54:06.759Z,99901.03
2024-04-09T10:59:23.141Z,99894.44
2024-04-09T11:04:25.070Z,99899.47
2024-04-09T11:09:28.619Z,99902.97
2024-04-09T11:14:30.903Z,99914.56
2024-04-09T11:19:33.992Z,99923.81
2024-04-09T11:24:37.994Z,99948.38
2024-04-09T11:29:47.904Z,99933.75
2024-04-09T11:34:49.821Z,99937.66
2024-04-09T11:39:52.016Z,99955.19
2024-04-09T11:45:01.148Z,99949.13
2024-04-09T11:50:05.608Z,99949.44
2024-04-09T11:55:09.362Z,99957.50
2024-04-09T12:00:13.822Z,99979.63
2024-04-09T12:05:16.499Z,99973.28
2024-04-09T12:10:18.402Z,99981.06
2024-04-09T12:15:20.754Z,99985.78
2024-04-09T12:20:22.669Z,99997.16
2024-04-09T12:25:24.490Z,99995.28
2024-04-09T12:30:26.422Z,99986.19
2024-04-09T12:35:28.604Z,99988.50
2024-04-09T12:40:30.327Z,99978.19
2024-04-09T12:45:33.295Z,99979.09
2024-04-09T12:50:35.477Z,99980.00
2024-04-09T12:55:37.358Z,99973.75
2024-04-09T13:00:57.751Z,99989.13
2024-04-09T13:06:02.588Z,99982.31
2024-04-09T13:11:05.643Z,99979.84
2024-04-09T13:16:49.634Z,99971.06
2024-04-09T13:21:31.238Z,99970.88
2024-04-09T13:26:33.077Z,99970.06
2024-04-09T13:31:34.991Z,99955.97
2024-04-09T13:36:36.800Z,99958.81
2024-04-09T13:41:38.612Z,99961.97
2024-04-09T13:46:40.402Z,99966.41
2024-04-09T13:51:42.246Z,99964.47
2024-04-09T13:56:44.897Z,99964.75
2024-04-09T14:01:46.820Z,99970.09
2024-04-09T14:06:49.600Z,99975.47
2024-04-09T14:11:51.555Z,99966.41
2024-04-09T14:16:53.391Z,99960.44
2024-04-09T14:21:55.312Z,99972.47
2024-04-09T14:26:57.392Z,99985.66
2024-04-09T14:31:59.140Z,99985.44
2024-04-09T14:37:00.954Z,100001.72
2024-04-09T14:42:02.697Z,100002.38
2024-04-09T14:47:05.338Z,100020.94
2024-04-09T14:52:07.411Z,100006.34
2024-04-09T14:57:10.066Z,100011.44
2024-04-09T15:02:12.339Z,100009.50
2024-04-09T15:07:14.213Z,100014.31
2024-04-09T15:12:16.166Z,100018.13
2024-04-09T15:17:18.021Z,100034.19
2024-04-09T15:22:19.897Z,100031.22
2024-04-09T15:27:22.337Z,100035.44
2024-04-09T15:32:24.289Z,100049.34
2024-04-09T15:37:28.139Z,100041.31
2024-04-09T15:42:29.857Z,100048.72
2024-04-09T15:47:31.828Z,100061.72
2024-04-09T15:52:34.239Z,100068.59
2024-04-09T15:57:36.255Z,100056.38
2024-04-09T16:02:38.938Z,100099.03
2024-04-09T16:07:40.997Z,100086.31
2024-04-09T16:12:43.973Z,100090.38
2024-04-09T16:17:46.384Z,100101.91
2024-04-09T16:22:48.311Z,100101.09
2024-04-09T16:27:50.703Z,100114.94
2024-04-09T16:32:55.667Z,100136.31
2024-04-09T16:38:00.088Z,100135.75
2024-04-09T16:43:01.834Z,100144.38
2024-04-09T16:48:05.981Z,100170.59
2024-04-09T16:53:08.670Z,100173.50
2024-04-09T16:58:11.319Z,100186.63
2024-04-09T17:03:15.431Z,100158.19
2024-04-09T17:08:17.796Z,100173.78
2024-04-09T17:13:20.932Z,100190.84
2024-04-09T17:18:23.469Z,100185.94
2024-04-09T17:23:26.852Z,100186.97
2024-04-09T17:28:29.563Z,100206.91
2024-04-09T17:33:31.463Z,100214.06
2024-04-09T17:38:33.760Z,100198.56
2024-04-09T17:43:36.617Z,100202.41
2024-04-09T17:48:38.667Z,100207.47
2024-04-09T17:53:40.739Z,100236.41
2024-04-09T17:58:43.015Z,100220.97
2024-04-09T18:03:45.401Z,100230.50
2024-04-09T18:08:47.722Z,100226.34
2024-04-09T18:13:49.598Z,100235.03
2024-04-09T18:18:51.982Z,100248.44
2024-04-09T18:23:53.916Z,100267.56
2024-04-09T18:28:55.921Z,100283.53
2024-04-09T18:33:59.367Z,100285.56
2024-04-09T18:39:03.068Z,100287.47
2024-04-09T18:44:05.164Z,100295.59
2024-04-09T18:49:07.780Z,100304.69
2024-04-09T18:54:12.000Z,100312.25
2024-04-09T18:59:13.876Z,100311.91
2024-04-09T19:04:16.104Z,100332.59
2024-04-09T19:09:17.979Z,100338.03
2024-04-09T19:14:20.062Z,100344.59
2024-04-09T19:19:21.915Z,100352.19
2024-04-09T19:24:23.784Z,100358.19
2024-04-09T19:29:27.698Z,100354.75
2024-04-09T19:34:30.253Z,100367.03
2024-04-09T19:39:32.028Z,100378.25
2024-04-09T19:44:34.218Z,100382.50
2024-04-09T19:55:23.601Z,100389.50
2024-04-09T20:00:25.371Z,100431.75
2024-04-09T20:05:27.169Z,100441.41
2024-04-09T20:10:29.174Z,100435.41
2024-04-09T20:15:31.305Z,100475.28
2024-04-09T20:20:33.080Z,100471.16
2024-04-09T20:25:34.970Z,100467.47
2024-04-09T20:30:36.683Z,100467.25
2024-04-09T20:35:43.979Z,100478.34
2024-04-09T20:40:58.404Z,100506.66
2024-04-09T20:46:00.143Z,100504.56
2024-04-09T20:51:02.018Z,100499.28
2024-04-09T20:56:04.724Z,100498.03
2024-04-09T21:01:06.706Z,100511.75
2024-04-09T21:06:09.311Z,100519.34
2024-04-09T21:11:12.719Z,100527.69
2024-04-09T21:16:16.345Z,100523.53
2024-04-09T21:21:18.770Z,100536.34
2024-04-09T21:26:20.813Z,100540.59
2024-04-09T21:31:22.516Z,100544.13
2024-04-09T21:36:24.246Z,100540.50
2024-04-09T21:41:26.405Z,100544.06
2024-04-09T21:46:29.876Z,100547.28
2024-04-09T21:51:31.578Z,100554.22
2024-04-09T21:56:33.266Z,100562.81
2024-04-09T22:01:35.007Z,100552.28
2024-04-09T22:06:36.750Z,100579.09
2024-04-09T22:11:38.771Z,100570.72
2024-04-09T22:16:40.729Z,100583.47
2024-04-09T22:21:42.544Z,100588.16
2024-04-09T22:26:44.247Z,100573.72
2024-04-09T22:31:46.078Z,100604.16
2024-04-09T22:36:47.816Z,100621.31
2024-04-09T22:41:49.511Z,100620.06
2024-04-09T22:46:51.372Z,100647.44
2024-04-09T22:51:53.138Z,100632.78
2024-04-09T22:56:54.833Z,100662.44
2024-04-09T23:01:56.653Z,100657.66
2024-04-09T23:06:58.743Z,100664.72
2024-04-09T23:12:01.054Z,100659.38
2024-04-09T23:17:05.634Z,100675.31
2024-04-09T23:22:07.508Z,100684.31
2024-04-09T23:27:10.325Z,100669.88
2024-04-09T23:32:12.198Z,100686.34
2024-04-09T23:37:14.040Z,100690.94
2024-04-09T23:42:15.875Z,100689.19
2024-04-09T23:47:17.661Z,100698.94
2024-04-09T23:52:20.251Z,100685.16
2024-04-09T23:57:21.974Z,100691.50
